Time;durP1;ratioP1;P1;durP2;ratioP2;P2;SDS_P1;SDS_P2;PMS_P1;PMS_P2;Temp;Humidity;BMP_temperature;BMP_pressure;BME280_temperature;BME280_humidity;BME280_pressure;Samples;Min_cycle;Max_cycle;Signal;HPM_P1;HPM_P2
2022/04/06 00:00:44;;;;;;;4.03;3.47;;;10.80;99.90;;;;;;5074554;28;20562;-65
2022/04/06 00:03:10;;;;;;;4.30;3.50;;;10.80;99.90;;;;;;5074423;28;20170;-66
2022/04/06 00:05:35;;;;;;;3.70;3.07;;;10.80;99.90;;;;;;5073332;28;20173;-65
2022/04/06 00:08:01;;;;;;;5.60;3.30;;;10.80;99.90;;;;;;5074178;28;20171;-66
2022/04/06 00:10:28;;;;;;;4.60;3.60;;;10.80;99.90;;;;;;5073909;28;20163;-65
2022/04/06 00:12:54;;;;;;;4.67;3.37;;;10.80;99.90;;;;;;5074629;28;20258;-65
2022/04/06 00:15:20;;;;;;;3.97;3.10;;;10.80;99.90;;;;;;5074095;28;20244;-64
2022/04/06 00:17:46;;;;;;;3.53;3.10;;;10.80;99.90;;;;;;5074038;28;20573;-63
2022/04/06 00:20:12;;;;;;;4.07;3.37;;;10.90;99.90;;;;;;5073789;28;20168;-65
2022/04/06 00:22:38;;;;;;;4.13;3.43;;;10.80;99.90;;;;;;5055927;28;20178;-64
2022/04/06 00:25:04;;;;;;;4.60;3.47;;;10.90;99.90;;;;;;5073503;28;20175;-66
2022/04/06 00:27:30;;;;;;;4.00;2.97;;;10.80;99.90;;;;;;5073759;28;20174;-66
2022/04/06 00:29:55;;;;;;;4.27;3.33;;;10.80;99.90;;;;;;5074520;28;20166;-65
2022/04/06 00:32:21;;;;;;;4.70;3.60;;;10.80;99.90;;;;;;5074956;28;20317;-64
2022/04/06 00:37:31;;;;;;;4.30;3.50;;;10.90;99.90;;;;;;5075221;28;20260;-64
2022/04/06 00:39:56;;;;;;;5.00;3.70;;;10.80;99.90;;;;;;5074104;28;20628;-63
2022/04/06 00:42:22;;;;;;;4.83;3.93;;;10.90;99.90;;;;;;5073908;28;20341;-64
2022/04/06 00:44:48;;;;;;;5.23;3.57;;;10.90;99.90;;;;;;5073104;28;20159;-64
2022/04/06 00:47:13;;;;;;;3.77;3.20;;;10.80;99.90;;;;;;5073078;28;20187;-64
2022/04/06 00:49:39;;;;;;;4.57;3.67;;;10.80;99.90;;;;;;5073517;28;20167;-64
2022/04/06 00:52:06;;;;;;;4.07;3.57;;;10.80;99.90;;;;;;5073252;28;20151;-66
2022/04/06 00:54:34;;;;;;;5.20;3.90;;;10.80;99.90;;;;;;5073305;28;20159;-64
2022/04/06 00:57:00;;;;;;;4.40;3.77;;;10.80;99.90;;;;;;5073405;28;20175;-65
2022/04/06 00:59:29;;;;;;;6.33;4.23;;;10.70;99.90;;;;;;5073468;28;20187;-65
2022/04/06 01:01:56;;;;;;;4.57;4.00;;;10.60;99.90;;;;;;5073285;28;20191;-64
2022/04/06 01:04:21;;;;;;;7.23;4.23;;;10.60;99.90;;;;;;5073929;28;20151;-64
2022/04/06 01:06:48;;;;;;;5.47;4.07;;;10.60;99.90;;;;;;5074503;28;20296;-65
2022/04/06 01:09:18;;;;;;;4.87;4.10;;;10.50;99.90;;;;;;5077013;28;20156;-66
2022/04/06 01:11:45;;;;;;;5.37;4.30;;;10.50;99.90;;;;;;5060809;28;20171;-66
2022/04/06 01:14:12;;;;;;;4.67;4.03;;;10.40;99.90;;;;;;5060246;28;20207;-66
2022/04/06 01:16:38;;;;;;;5.70;4.27;;;10.40;99.90;;;;;;5077817;28;20168;-64
2022/04/06 01:19:04;;;;;;;4.90;3.83;;;10.30;99.90;;;;;;5078319;28;20195;-66
2022/04/06 01:21:30;;;;;;;4.57;4.10;;;10.30;99.90;;;;;;5081468;28;20642;-66
2022/04/06 01:23:56;;;;;;;5.37;4.10;;;10.30;99.90;;;;;;5060611;28;20182;-64
2022/04/06 01:26:22;;;;;;;5.83;4.13;;;10.30;99.90;;;;;;5077940;28;20160;-65
2022/04/06 01:28:48;;;;;;;4.77;3.70;;;10.10;99.90;;;;;;5076598;28;20568;-65
2022/04/06 01:31:15;;;;;;;4.40;3.63;;;10.10;99.90;;;;;;5076427;28;20197;-65
2022/04/06 01:33:41;;;;;;;5.53;4.60;;;10.00;99.90;;;;;;5076501;28;20595;-64
2022/04/06 01:36:07;;;;;;;6.17;4.37;;;10.00;99.90;;;;;;5076275;28;20183;-66
2022/04/06 01:38:32;;;;;;;6.77;4.70;;;9.90;99.90;;;;;;5076465;28;20203;-64
2022/04/06 01:40:58;;;;;;;5.23;4.27;;;9.90;99.90;;;;;;5076661;28;20171;-65
2022/04/06 01:43:24;;;;;;;5.03;4.43;;;10.00;99.90;;;;;;5076353;28;20156;-64
2022/04/06 01:45:49;;;;;;;5.63;4.73;;;9.90;99.90;;;;;;5092609;28;20179;-66
2022/04/06 01:48:16;;;;;;;5.63;4.17;;;9.90;99.90;;;;;;5076494;28;20163;-65
2022/04/06 01:53:27;;;;;;;6.13;4.87;;;9.80;99.90;;;;;;5076403;28;20166;-65
2022/04/06 01:55:54;;;;;;;6.07;4.60;;;9.80;99.90;;;;;;5076509;28;20253;-65
2022/04/06 01:58:20;;;;;;;10.50;4.70;;;9.80;99.90;;;;;;5076908;28;20249;-64
2022/04/06 02:00:46;;;;;;;6.23;4.90;;;9.90;99.90;;;;;;5077175;28;20171;-65
2022/04/06 02:03:11;;;;;;;7.07;5.17;;;9.90;99.90;;;;;;5075999;28;20167;-65
2022/04/06 02:05:37;;;;;;;6.40;4.97;;;9.80;99.90;;;;;;5076326;28;20168;-64
2022/04/06 02:08:03;;;;;;;5.80;4.83;;;9.80;99.90;;;;;;5075718;28;20244;-63
2022/04/06 02:10:28;;;;;;;7.83;5.63;;;9.90;99.90;;;;;;5075914;28;20164;-65
2022/04/06 02:12:57;;;;;;;6.90;4.73;;;9.90;99.90;;;;;;5075867;28;20171;-64
2022/04/06 02:15:23;;;;;;;6.20;4.77;;;9.90;99.90;;;;;;5075955;28;20156;-64
2022/04/06 02:17:49;;;;;;;6.83;5.53;;;9.90;99.90;;;;;;5075582;28;20179;-64
2022/04/06 02:20:15;;;;;;;6.07;4.97;;;10.00;99.90;;;;;;5075262;28;20175;-64
2022/04/06 02:22:44;;;;;;;6.63;5.13;;;9.90;99.90;;;;;;5075789;28;20215;-64
2022/04/06 02:25:12;;;;;;;8.97;6.17;;;10.00;99.90;;;;;;5075715;28;20160;-64
2022/04/06 02:27:49;;;;;;;6.43;5.43;;;10.00;99.90;;;;;;5074566;28;20167;-64
2022/04/06 02:30:16;;;;;;;7.87;5.93;;;10.00;99.90;;;;;;5075405;28;20159;-64
2022/04/06 02:32:42;;;;;;;7.57;5.73;;;10.00;99.90;;;;;;5075457;28;20183;-65
2022/04/06 02:35:08;;;;;;;8.90;5.83;;;10.00;99.90;;;;;;5075723;28;20227;-64
2022/04/06 02:37:34;;;;;;;7.10;5.50;;;10.00;99.90;;;;;;5057174;28;20175;-65
2022/04/06 02:39:59;;;;;;;7.27;5.30;;;10.00;99.90;;;;;;5075461;28;20650;-65
2022/04/06 02:42:25;;;;;;;6.73;5.30;;;10.10;99.90;;;;;;5075058;28;20249;-64
2022/04/06 02:44:50;;;;;;;6.60;5.37;;;10.10;99.90;;;;;;5075666;28;20164;-65
2022/04/06 02:47:16;;;;;;;7.90;5.57;;;10.10;99.90;;;;;;5075592;28;20171;-64
2022/04/06 02:49:42;;;;;;;8.97;6.30;;;10.10;99.90;;;;;;5075177;28;20171;-65
2022/04/06 02:52:08;;;;;;;8.60;5.40;;;10.10;99.90;;;;;;5075321;28;20172;-65
2022/04/06 02:54:33;;;;;;;8.43;5.83;;;10.10;99.90;;;;;;5075035;28;20160;-65
2022/04/06 02:56:59;;;;;;;8.50;5.67;;;10.10;99.90;;;;;;5077096;28;20174;-64
2022/04/06 02:59:25;;;;;;;8.20;5.77;;;10.00;99.90;;;;;;5076844;28;20192;-65
2022/04/06 03:01:50;;;;;;;7.73;5.47;;;10.00;99.90;;;;;;5077852;28;20498;-64
2022/04/06 03:04:16;;;;;;;7.53;5.27;;;10.00;99.90;;;;;;5078221;28;20218;-65
2022/04/06 03:06:42;;;;;;;6.73;5.43;;;10.00;99.90;;;;;;5078071;28;20202;-64
2022/04/06 03:09:08;;;;;;;7.77;5.57;;;10.10;99.90;;;;;;5076086;28;20176;-65
2022/04/06 03:11:34;;;;;;;7.67;5.27;;;10.10;99.90;;;;;;5074825;28;20203;-65
2022/04/06 03:14:00;;;;;;;6.57;5.03;;;10.10;99.90;;;;;;5074879;28;20246;-65
2022/04/06 03:16:25;;;;;;;7.37;5.40;;;10.10;99.90;;;;;;5074910;28;20607;-65
2022/04/06 03:18:51;;;;;;;7.43;5.13;;;10.20;99.90;;;;;;5057223;28;20626;-65
2022/04/06 03:21:17;;;;;;;7.47;5.43;;;10.20;99.90;;;;;;5074626;28;20221;-65
2022/04/06 03:23:42;;;;;;;7.80;5.57;;;10.20;99.90;;;;;;5075009;28;20160;-67
2022/04/06 03:26:08;;;;;;;9.80;5.97;;;10.10;99.90;;;;;;5075834;28;20603;-66
2022/04/06 03:28:34;;;;;;;7.20;5.80;;;10.20;99.90;;;;;;5074164;28;20568;-64
2022/04/06 03:31:00;;;;;;;7.63;5.60;;;10.10;99.90;;;;;;5074306;28;20474;-64
2022/04/06 03:33:25;;;;;;;8.93;5.57;;;10.20;99.90;;;;;;5074828;28;20171;-64
2022/04/06 03:35:51;;;;;;;7.77;5.43;;;10.20;99.90;;;;;;5056972;28;20183;-64
2022/04/06 03:38:17;;;;;;;8.73;5.47;;;10.10;99.90;;;;;;5074290;28;20199;-64
2022/04/06 03:40:43;;;;;;;6.87;5.23;;;10.10;99.90;;;;;;5055982;28;20183;-66
2022/04/06 03:43:08;;;;;;;7.23;5.00;;;10.20;99.90;;;;;;5073790;28;20195;-66
2022/04/06 03:45:34;;;;;;;7.03;5.27;;;10.10;99.90;;;;;;5074435;28;20170;-65
2022/04/06 03:48:00;;;;;;;8.53;4.87;;;10.10;99.90;;;;;;5074325;28;20152;-64
2022/04/06 03:50:26;;;;;;;7.57;4.90;;;10.10;99.90;;;;;;5074221;28;20171;-65
2022/04/06 03:52:52;;;;;;;8.30;6.03;;;10.10;99.90;;;;;;5074433;28;20155;-65
2022/04/06 03:55:18;;;;;;;6.93;5.13;;;10.20;99.90;;;;;;5073951;28;20277;-65
2022/04/06 03:57:44;;;;;;;7.30;5.13;;;10.20;99.90;;;;;;5073424;28;20228;-65
2022/04/06 04:00:12;;;;;;;6.50;5.27;;;10.30;99.90;;;;;;5074112;28;20171;-65
2022/04/06 04:02:38;;;;;;;8.90;5.23;;;10.20;99.90;;;;;;5073782;28;20177;-65
2022/04/06 04:05:04;;;;;;;6.80;5.20;;;10.20;99.90;;;;;;5074297;28;20169;-64
2022/04/06 04:07:31;;;;;;;9.50;6.07;;;10.20;99.90;;;;;;5075667;28;20175;-65
2022/04/06 04:09:57;;;;;;;7.37;5.60;;;10.20;99.90;;;;;;5075871;28;20565;-65
2022/04/06 04:12:23;;;;;;;7.53;5.03;;;10.10;99.90;;;;;;5076929;28;20160;-64
2022/04/06 04:14:49;;;;;;;5.93;4.77;;;10.10;99.90;;;;;;5075528;28;20217;-65
2022/04/06 04:17:14;;;;;;;8.13;5.20;;;10.20;99.90;;;;;;5076195;28;20167;-64
2022/04/06 04:19:40;;;;;;;6.13;4.70;;;10.20;99.90;;;;;;5073779;28;20226;-64
2022/04/06 04:22:06;;;;;;;5.90;4.77;;;10.20;99.90;;;;;;5073615;28;20163;-63
2022/04/06 04:24:32;;;;;;;7.83;5.00;;;10.20;99.90;;;;;;5073560;28;20653;-65
2022/04/06 04:26:57;;;;;;;6.17;5.17;;;10.30;99.90;;;;;;5073443;28;20565;-65
2022/04/06 04:29:23;;;;;;;5.93;4.87;;;10.30;99.90;;;;;;5073577;28;20229;-63
2022/04/06 04:31:48;;;;;;;7.77;5.50;;;10.30;99.90;;;;;;5074049;28;20593;-64
2022/04/06 04:34:15;;;;;;;7.80;5.73;;;10.30;99.90;;;;;;5073321;28;20176;-65
2022/04/06 04:36:41;;;;;;;8.10;5.20;;;10.30;99.90;;;;;;5073362;28;20168;-64
2022/04/06 04:39:07;;;;;;;7.23;5.50;;;10.30;99.90;;;;;;5074008;28;20214;-65
2022/04/06 04:41:33;;;;;;;7.47;5.90;;;10.30;99.90;;;;;;5073407;28;20533;-64
2022/04/06 04:43:59;;;;;;;6.67;4.97;;;10.30;99.90;;;;;;5073608;28;20247;-65
2022/04/06 04:46:25;;;;;;;12.93;7.17;;;10.40;99.90;;;;;;5073769;28;20545;-64
2022/04/06 04:48:50;;;;;;;6.33;4.87;;;10.30;99.90;;;;;;5074657;28;20174;-64
2022/04/06 04:51:16;;;;;;;6.90;4.87;;;10.40;99.90;;;;;;5075452;28;20171;-65
2022/04/06 04:53:42;;;;;;;7.90;5.33;;;10.40;99.90;;;;;;5073039;28;20163;-65
2022/04/06 04:56:08;;;;;;;6.13;5.00;;;10.50;99.90;;;;;;5073887;28;20718;-65
2022/04/06 04:58:34;;;;;;;9.80;5.53;;;10.40;99.90;;;;;;5073394;28;20200;-64
2022/04/06 05:01:00;;;;;;;7.87;5.50;;;10.40;99.90;;;;;;5073643;28;20525;-65
2022/04/06 05:03:26;;;;;;;7.53;6.37;;;10.40;99.90;;;;;;5073511;28;20167;-65
2022/04/06 05:05:53;;;;;;;7.07;4.90;;;10.40;99.90;;;;;;5073194;28;20164;-65
2022/04/06 05:08:23;;;;;;;6.60;4.47;;;10.40;99.90;;;;;;5073357;28;20250;-64
2022/04/06 05:10:49;;;;;;;6.33;4.73;;;10.40;99.90;;;;;;5073594;28;20172;-64
2022/04/06 05:13:17;;;;;;;5.60;4.50;;;10.60;99.90;;;;;;5074003;28;20175;-65
2022/04/06 05:15:43;;;;;;;6.60;4.60;;;10.60;99.90;;;;;;5073449;28;20603;-66
2022/04/06 05:18:09;;;;;;;6.27;4.30;;;10.80;99.90;;;;;;5073033;28;20336;-64
2022/04/06 05:20:35;;;;;;;5.77;4.07;;;10.70;99.90;;;;;;5073064;28;20191;-65
2022/04/06 05:23:00;;;;;;;5.07;4.00;;;10.70;99.90;;;;;;5073019;28;20199;-65
2022/04/06 05:25:26;;;;;;;6.87;4.77;;;10.60;99.90;;;;;;5073789;28;20172;-64
2022/04/06 05:27:54;;;;;;;5.43;4.23;;;10.70;99.90;;;;;;5074412;28;20167;-64
2022/04/06 05:30:21;;;;;;;6.90;4.73;;;10.60;99.90;;;;;;5106664;28;20198;-65
2022/04/06 05:32:49;;;;;;;7.00;5.30;;;10.50;99.90;;;;;;5095631;28;20173;-65
2022/04/06 05:35:15;;;;;;;8.37;5.07;;;10.50;99.90;;;;;;5097073;28;20158;-65
2022/04/06 05:37:42;;;;;;;10.63;6.27;;;10.50;99.90;;;;;;5097292;28;20239;-65
2022/04/06 05:40:10;;;;;;;8.80;5.50;;;10.60;99.90;;;;;;5098872;28;20258;-66
2022/04/06 05:42:37;;;;;;;7.07;5.50;;;10.60;99.90;;;;;;5097579;28;20234;-64
2022/04/06 05:45:03;;;;;;;9.13;5.00;;;10.60;99.90;;;;;;5097594;28;20166;-64
2022/04/06 05:47:29;;;;;;;9.27;4.60;;;10.70;99.90;;;;;;5094521;28;20224;-64
2022/04/06 05:49:55;;;;;;;6.57;4.50;;;10.70;99.90;;;;;;5093254;28;20163;-66
2022/04/06 05:52:20;;;;;;;5.90;4.10;;;10.80;99.90;;;;;;5093271;28;20245;-66
2022/04/06 05:54:46;;;;;;;6.17;4.07;;;10.80;99.90;;;;;;5092765;28;20175;-67
2022/04/06 05:57:12;;;;;;;6.60;4.40;;;10.80;99.90;;;;;;5108989;28;20258;-67
2022/04/06 05:59:38;;;;;;;6.50;4.53;;;10.70;99.90;;;;;;5093126;28;20497;-66
2022/04/06 06:02:04;;;;;;;6.13;4.43;;;10.80;99.90;;;;;;5093871;28;20178;-66
2022/04/06 06:04:30;;;;;;;5.50;4.33;;;10.80;99.90;;;;;;5096019;28;20613;-65
2022/04/06 06:06:56;;;;;;;5.63;4.40;;;10.80;99.90;;;;;;5097045;28;20155;-64
2022/04/06 06:09:21;;;;;;;4.97;3.53;;;10.90;99.90;;;;;;5097525;28;20167;-65
2022/04/06 06:11:47;;;;;;;4.50;4.00;;;10.90;99.90;;;;;;5078659;28;20276;-65
2022/04/06 06:14:13;;;;;;;5.27;4.13;;;10.80;99.90;;;;;;5097859;28;20148;-67
2022/04/06 06:16:39;;;;;;;6.97;4.77;;;10.80;99.90;;;;;;5099481;28;20258;-65
2022/04/06 06:19:05;;;;;;;6.43;4.60;;;10.70;99.90;;;;;;5097873;28;20614;-65
2022/04/06 06:21:32;;;;;;;9.03;4.80;;;10.60;99.90;;;;;;5098596;28;20171;-66
2022/04/06 06:24:04;;;;;;;6.73;4.53;;;10.40;99.90;;;;;;5100848;28;20237;-65
2022/04/06 06:26:30;;;;;;;7.17;4.70;;;10.30;99.90;;;;;;5098827;28;20167;-64
2022/04/06 06:28:55;;;;;;;4.70;3.90;;;10.20;99.90;;;;;;5098476;28;20189;-65
2022/04/06 06:31:21;;;;;;;6.80;4.23;;;10.20;99.90;;;;;;5098350;28;20503;-66
2022/04/06 06:33:47;;;;;;;6.10;4.30;;;10.20;99.90;;;;;;5096761;28;20208;-65
2022/04/06 06:36:13;;;;;;;5.50;4.07;;;10.10;99.90;;;;;;5098031;28;20244;-68
2022/04/06 06:38:38;;;;;;;5.87;3.77;;;10.10;99.90;;;;;;5098651;28;20202;-66
2022/04/06 06:41:04;;;;;;;8.43;4.03;;;10.00;99.90;;;;;;5100305;28;20457;-67
2022/04/06 06:43:30;;;;;;;4.80;3.87;;;9.90;99.90;;;;;;5100735;28;20193;-64
2022/04/06 06:45:55;;;;;;;5.57;3.90;;;9.90;99.90;;;;;;5098385;28;20218;-65
2022/04/06 06:48:21;;;;;;;6.83;3.87;;;9.90;99.90;;;;;;5097403;28;20155;-66
2022/04/06 06:50:46;;;;;;;7.57;4.33;;;9.90;99.90;;;;;;5098338;28;20178;-65
2022/04/06 06:53:12;;;;;;;4.27;3.57;;;9.90;99.90;;;;;;5101810;28;20194;-66
2022/04/06 06:55:37;;;;;;;5.53;4.27;;;9.90;99.90;;;;;;5097422;28;20237;-66
2022/04/06 06:58:03;;;;;;;8.50;4.70;;;9.90;99.90;;;;;;5096167;28;20163;-64
2022/04/06 07:00:29;;;;;;;6.67;4.13;;;10.00;99.90;;;;;;5095655;28;20217;-64
2022/04/06 07:02:55;;;;;;;6.23;4.10;;;10.10;99.90;;;;;;5096354;28;20247;-64
2022/04/06 07:05:22;;;;;;;5.30;3.57;;;10.10;99.90;;;;;;5096220;28;20163;-65
2022/04/06 07:07:55;;;;;;;10.20;4.47;;;10.20;99.90;;;;;;5096010;28;20174;-65
2022/04/06 07:10:25;;;;;;;6.97;5.00;;;10.20;99.90;;;;;;5078102;28;20224;-65
2022/04/06 07:12:52;;;;;;;5.90;4.27;;;10.30;99.90;;;;;;5095863;28;20254;-66
2022/04/06 07:15:18;;;;;;;5.13;4.07;;;10.30;99.90;;;;;;5096433;28;20239;-64
2022/04/06 07:17:44;;;;;;;7.30;4.60;;;10.40;99.90;;;;;;5096519;28;20174;-65
2022/04/06 07:20:10;;;;;;;5.60;4.03;;;10.50;99.90;;;;;;5096614;28;20195;-66
2022/04/06 07:22:36;;;;;;;5.37;4.10;;;10.70;99.90;;;;;;5096560;28;20164;-67
2022/04/06 07:25:03;;;;;;;6.30;4.73;;;10.80;99.90;;;;;;5096869;28;20211;-67
2022/04/06 07:27:36;;;;;;;6.83;4.37;;;10.90;99.90;;;;;;5098872;28;20166;-65
2022/04/06 07:30:05;;;;;;;6.20;4.70;;;11.00;99.90;;;;;;5098751;28;20184;-64
2022/04/06 07:32:31;;;;;;;7.33;4.73;;;11.00;99.90;;;;;;5097454;28;20165;-65
2022/04/06 07:34:57;;;;;;;7.43;4.70;;;11.00;99.90;;;;;;5080269;28;20174;-69
2022/04/06 07:37:22;;;;;;;7.67;4.10;;;11.10;99.90;;;;;;5098258;28;20175;-65
2022/04/06 07:39:48;;;;;;;6.97;5.43;;;11.30;99.90;;;;;;5097144;28;20202;-66
2022/04/06 07:42:14;;;;;;;7.40;5.00;;;11.30;99.90;;;;;;5097567;28;20591;-66
2022/04/06 07:44:40;;;;;;;7.73;5.20;;;11.30;99.90;;;;;;5097613;28;20250;-65
2022/04/06 07:47:05;;;;;;;7.80;5.03;;;11.30;99.90;;;;;;5097600;28;20175;-66
2022/04/06 07:49:31;;;;;;;8.67;4.43;;;11.30;99.90;;;;;;5098114;28;20276;-65
2022/04/06 07:51:57;;;;;;;7.43;4.90;;;11.40;99.90;;;;;;5097813;28;20224;-66
2022/04/06 07:54:23;;;;;;;7.13;4.27;;;11.40;99.90;;;;;;5097639;28;20587;-66
2022/04/06 07:56:48;;;;;;;5.97;3.87;;;11.40;99.90;;;;;;5096964;28;20230;-65
2022/04/06 07:59:14;;;;;;;5.23;4.13;;;11.50;99.90;;;;;;5096628;28;20622;-65
2022/04/06 08:01:40;;;;;;;5.37;3.40;;;11.60;99.90;;;;;;5095772;28;20151;-65
2022/04/06 08:04:05;;;;;;;5.20;3.63;;;11.50;99.90;;;;;;5095243;28;20607;-64
2022/04/06 08:06:31;;;;;;;6.47;4.27;;;11.60;99.90;;;;;;5077737;28;20170;-66
2022/04/06 08:08:57;;;;;;;4.47;3.87;;;11.60;99.90;;;;;;5096391;28;20174;-65
2022/04/06 08:11:23;;;;;;;7.30;3.57;;;11.70;99.90;;;;;;5077824;28;20182;-65
2022/04/06 08:13:49;;;;;;;4.63;3.37;;;11.70;99.90;;;;;;5096844;28;20190;-66
2022/04/06 08:16:15;;;;;;;7.40;3.73;;;11.80;99.90;;;;;;5097364;28;20204;-65
2022/04/06 08:18:40;;;;;;;6.70;3.53;;;11.90;99.90;;;;;;5097457;28;20202;-65
2022/04/06 08:21:06;;;;;;;5.87;3.40;;;12.00;99.90;;;;;;5079107;28;20179;-66
2022/04/06 08:23:34;;;;;;;8.47;4.90;;;12.10;99.90;;;;;;5078459;28;20522;-65
2022/04/06 08:25:59;;;;;;;7.60;3.17;;;12.20;99.90;;;;;;5095818;28;20167;-65
2022/04/06 08:28:26;;;;;;;5.43;2.97;;;12.20;99.90;;;;;;5078027;28;20615;-64
2022/04/06 08:30:52;;;;;;;5.93;2.83;;;12.20;99.90;;;;;;5094808;28;20162;-65
2022/04/06 08:33:18;;;;;;;3.53;2.70;;;12.30;99.90;;;;;;5094560;28;20177;-64
2022/04/06 08:35:47;;;;;;;11.43;6.37;;;12.40;99.90;;;;;;5094225;28;20159;-67
2022/04/06 08:38:15;;;;;;;6.60;4.43;;;12.60;99.90;;;;;;5093813;28;20190;-66
2022/04/06 08:40:43;;;;;;;5.63;3.57;;;12.60;99.90;;;;;;5094496;28;20162;-65
2022/04/06 08:43:10;;;;;;;5.63;2.90;;;12.60;99.90;;;;;;5095258;28;20622;-66
2022/04/06 08:45:39;;;;;;;3.07;2.70;;;12.70;99.90;;;;;;5096026;28;20587;-66
2022/04/06 08:48:10;;;;;;;5.50;2.50;;;12.80;99.90;;;;;;5094149;28;20171;-67
2022/04/06 08:50:37;;;;;;;3.23;2.67;;;12.90;99.90;;;;;;5094708;28;20164;-67
2022/04/06 08:53:04;;;;;;;3.23;2.70;;;13.10;99.90;;;;;;5075710;28;20186;-69
2022/04/06 08:55:31;;;;;;;2.93;2.50;;;13.20;99.90;;;;;;5094169;28;20403;-68
2022/04/06 08:57:57;;;;;;;3.73;2.23;;;13.20;99.90;;;;;;5093628;28;20572;-66
2022/04/06 09:00:23;;;;;;;3.03;2.40;;;13.20;99.90;;;;;;5093905;28;20163;-66
2022/04/06 09:02:49;;;;;;;5.50;2.90;;;13.30;99.90;;;;;;5094188;28;20485;-66
2022/04/06 09:05:15;;;;;;;4.47;2.67;;;13.50;99.90;;;;;;5095483;28;20159;-66
2022/04/06 09:07:41;;;;;;;4.53;2.73;;;13.40;99.90;;;;;;5096484;28;20171;-65
2022/04/06 09:10:08;;;;;;;4.97;2.77;;;13.40;99.90;;;;;;5094336;28;20606;-65
2022/04/06 09:12:33;;;;;;;4.40;2.90;;;13.40;99.90;;;;;;5094245;28;20174;-66
2022/04/06 09:15:10;;;;;;;4.43;2.63;;;13.40;99.90;;;;;;5093612;28;20162;-65
2022/04/06 09:17:48;;;;;;;4.67;3.03;;;13.30;99.90;;;;;;5094416;28;20163;-65
2022/04/06 09:20:14;;;;;;;3.30;2.97;;;13.40;99.90;;;;;;5094638;28;20303;-66
2022/04/06 09:22:41;;;;;;;5.53;3.13;;;13.30;99.90;;;;;;5095969;28;20163;-66
2022/04/06 09:25:09;;;;;;;5.63;2.90;;;13.10;99.90;;;;;;5096985;28;20166;-65
2022/04/06 09:27:36;;;;;;;4.80;2.93;;;12.80;99.90;;;;;;5095478;28;20193;-66
2022/04/06 09:30:05;;;;;;;5.27;3.37;;;12.60;99.90;;;;;;5095576;28;20159;-65
2022/04/06 09:32:31;;;;;;;5.70;2.73;;;12.50;99.90;;;;;;5093563;28;20159;-65
2022/04/06 09:34:57;;;;;;;4.93;2.93;;;12.50;99.90;;;;;;5093634;28;20173;-66
2022/04/06 09:37:30;;;;;;;3.40;2.93;;;12.50;99.90;;;;;;5095116;28;20495;-65
2022/04/06 09:40:06;;;;;;;6.23;3.00;;;12.60;99.90;;;;;;5079435;28;20234;-66
2022/04/06 09:42:32;;;;;;;3.87;2.70;;;12.80;99.90;;;;;;5097852;28;20210;-66
2022/04/06 09:47:53;;;;;;;4.33;3.20;;;13.20;99.90;;;;;;5097405;28;20567;-67
2022/04/06 09:50:24;;;;;;;3.43;2.90;;;13.40;99.90;;;;;;5097201;28;20547;-66
2022/04/06 09:52:51;;;;;;;4.80;3.00;;;13.60;99.90;;;;;;5096890;28;20158;-66
2022/04/06 09:55:18;;;;;;;4.83;3.10;;;13.70;99.90;;;;;;5097336;28;20293;-67
2022/04/06 09:57:51;;;;;;;7.50;2.97;;;13.80;99.90;;;;;;5097369;28;20175;-67
2022/04/06 10:00:19;;;;;;;6.07;3.10;;;13.90;99.90;;;;;;5097219;28;20301;-67
2022/04/06 10:02:57;;;;;;;4.37;2.70;;;14.00;99.90;;;;;;5097167;28;20171;-65
2022/04/06 10:05:24;;;;;;;5.50;3.07;;;13.90;99.90;;;;;;5096949;28;20167;-65
2022/04/06 10:07:52;;;;;;;4.50;2.63;;;13.80;99.90;;;;;;5097370;28;20245;-69
2022/04/06 10:10:21;;;;;;;4.97;2.90;;;13.80;99.90;;;;;;5098476;28;20224;-65
2022/04/06 10:12:48;;;;;;;4.40;3.10;;;13.90;99.90;;;;;;5080610;28;20448;-66
2022/04/06 10:15:14;;;;;;;6.83;2.80;;;14.00;99.90;;;;;;5099243;28;20583;-66
2022/04/06 10:17:39;;;;;;;3.77;2.50;;;13.90;99.90;;;;;;5098281;28;20167;-66
2022/04/06 10:20:23;;;;;;;4.90;2.90;;;13.80;99.90;;;;;;5097572;28;20213;-67
2022/04/06 10:23:26;;;;;;;3.73;2.50;;;13.90;99.90;;;;;;5096571;28;20163;-65
2022/04/06 10:26:19;;;;;;;3.80;2.90;;;13.90;99.90;;;;;;5096593;28;20645;-67
2022/04/06 10:28:47;;;;;;;6.53;2.67;;;13.90;99.90;;;;;;5096362;28;20159;-65
2022/04/06 10:31:22;;;;;;;3.40;2.50;;;14.30;99.90;;;;;;5096600;28;20551;-66
2022/04/06 10:33:49;;;;;;;3.20;2.70;;;14.70;99.90;;;;;;5098107;28;20253;-66
2022/04/06 10:36:32;;;;;;;4.50;2.77;;;15.00;99.90;;;;;;5096234;28;20188;-66
2022/04/06 10:39:07;;;;;;;3.67;2.60;;;15.30;99.90;;;;;;5095659;28;20595;-67
2022/04/06 10:41:39;;;;;;;6.80;2.50;;;15.70;99.90;;;;;;5096434;28;20162;-66
2022/04/06 10:44:05;;;;;;;3.77;2.50;;;15.40;99.90;;;;;;5096517;28;20224;-67
2022/04/06 10:46:38;;;;;;;3.87;2.50;;;14.90;99.90;;;;;;5097081;28;20186;-65
2022/04/06 10:49:07;;;;;;;3.07;2.37;;;15.00;99.90;;;;;;5097362;28;20205;-64
2022/04/06 10:51:34;;;;;;;4.07;2.30;;;14.80;99.90;;;;;;5099759;28;20155;-66
2022/04/06 10:54:12;;;;;;;5.10;2.77;;;14.80;99.90;;;;;;5100647;28;20174;-66
2022/04/06 10:56:50;;;;;;;3.03;2.40;;;15.40;99.90;;;;;;5100411;28;20347;-66
2022/04/06 10:59:19;;;;;;;3.30;2.50;;;15.40;99.90;;;;;;5099716;28;20230;-69
2022/04/06 11:01:46;;;;;;;4.67;3.00;;;15.60;99.90;;;;;;5082072;28;20186;-65
2022/04/06 11:04:24;;;;;;;4.93;2.50;;;15.40;99.90;;;;;;5099558;28;20220;-65
2022/04/06 11:06:59;;;;;;;3.47;2.60;;;15.70;99.90;;;;;;5080662;28;20186;-68
2022/04/06 11:12:18;;;;;;;5.07;2.63;;;15.40;99.40;;;;;;5099593;28;20674;-65
2022/04/06 11:14:47;;;;;;;7.60;2.80;;;15.20;99.90;;;;;;5100004;28;20547;-66
2022/04/06 11:17:44;;;;;;;4.93;2.60;;;14.90;99.90;;;;;;5099454;28;20227;-65
2022/04/06 11:20:14;;;;;;;6.20;2.60;;;14.80;99.90;;;;;;5099235;28;20195;-65
2022/04/06 11:22:57;;;;;;;2.67;2.43;;;14.90;99.90;;;;;;5099694;28;20163;-66
2022/04/06 11:25:28;;;;;;;6.83;3.37;;;15.20;99.90;;;;;;5099354;28;20151;-66
2022/04/06 11:27:55;;;;;;;3.57;2.70;;;15.20;99.90;;;;;;5080847;28;20171;-67
2022/04/06 11:30:26;;;;;;;3.20;2.40;;;15.50;99.90;;;;;;5079875;28;20178;-66
2022/04/06 11:32:57;;;;;;;5.73;2.80;;;15.60;99.90;;;;;;5097148;28;20187;-67
2022/04/06 11:35:34;;;;;;;4.13;2.90;;;15.70;98.10;;;;;;5079205;28;20581;-67
2022/04/06 11:38:02;;;;;;;3.13;2.60;;;15.80;98.60;;;;;;5077804;28;20245;-66
2022/04/06 11:40:28;;;;;;;7.27;2.97;;;15.60;99.10;;;;;;5077213;28;20213;-68
2022/04/06 11:43:00;;;;;;;4.60;3.43;;;15.80;99.90;;;;;;5095929;28;20158;-69
2022/04/06 11:45:27;;;;;;;6.30;2.90;;;15.80;99.90;;;;;;5095590;28;20587;-65
2022/04/06 11:48:01;;;;;;;3.37;2.60;;;15.60;99.90;;;;;;5095942;28;20170;-66
2022/04/06 11:50:37;;;;;;;5.40;2.93;;;15.50;99.90;;;;;;5077385;28;20752;-68
2022/04/06 11:53:08;;;;;;;13.37;8.23;;;15.60;99.90;;;;;;5095784;28;20158;-66
2022/04/06 11:55:49;;;;;;;8.77;4.20;;;15.80;99.90;;;;;;5096461;28;20226;-65
2022/04/06 11:58:37;;;;;;;3.17;2.77;;;15.60;99.90;;;;;;5096479;28;20159;-67
2022/04/06 12:01:08;;;;;;;4.13;3.17;;;15.60;99.90;;;;;;5077511;28;20591;-66
2022/04/06 12:03:39;;;;;;;4.37;3.00;;;15.60;99.90;;;;;;5077097;28;20187;-67
2022/04/06 12:06:07;;;;;;;5.43;3.50;;;15.80;99.90;;;;;;5095165;28;20260;-65
2022/04/06 12:08:34;;;;;;;5.83;3.13;;;15.80;99.90;;;;;;5095197;28;20178;-65
2022/04/06 12:11:00;;;;;;;5.40;2.67;;;16.00;99.90;;;;;;5096576;28;20182;-66
2022/04/06 12:13:33;;;;;;;5.17;3.23;;;16.40;99.90;;;;;;5099280;28;20285;-67
2022/04/06 12:16:00;;;;;;;4.43;3.17;;;16.50;99.90;;;;;;5098493;28;20172;-69
2022/04/06 12:18:27;;;;;;;3.57;3.20;;;16.30;99.90;;;;;;5083447;28;20293;-66
2022/04/06 12:20:54;;;;;;;4.97;3.27;;;16.00;99.90;;;;;;5078530;28;20672;-65
2022/04/06 12:23:22;;;;;;;5.03;4.30;;;15.80;99.90;;;;;;5080476;28;20212;-67
2022/04/06 12:25:47;;;;;;;4.93;3.63;;;15.80;99.90;;;;;;5064269;28;20218;-65
2022/04/06 12:28:22;;;;;;;4.13;3.27;;;15.70;99.90;;;;;;5080891;28;20160;-68
2022/04/06 12:31:01;;;;;;;5.00;3.23;;;15.80;99.90;;;;;;5080798;28;20259;-70
2022/04/06 12:33:46;;;;;;;3.43;2.87;;;15.70;99.90;;;;;;5082051;28;20208;-66
2022/04/06 12:36:20;;;;;;;5.47;3.60;;;15.80;99.90;;;;;;5081145;28;20187;-67
2022/04/06 12:38:56;;;;;;;4.10;3.03;;;15.80;99.90;;;;;;5061373;28;20206;-66
2022/04/06 12:41:23;;;;;;;2.53;2.33;;;15.90;99.90;;;;;;5078250;28;20228;-67
2022/04/06 12:43:49;;;;;;;3.80;3.10;;;15.90;99.90;;;;;;5074139;28;20212;-65
2022/04/06 12:46:52;;;;;;;3.60;3.30;;;15.90;99.90;;;;;;5056103;28;20252;-66
2022/04/06 12:49:36;;;;;;;10.57;3.13;;;15.70;99.90;;;;;;5055435;28;20182;-65
2022/04/06 12:52:02;;;;;;;5.67;3.33;;;15.70;99.90;;;;;;5073904;28;20159;-67
2022/04/06 12:54:32;;;;;;;4.10;3.00;;;15.70;99.90;;;;;;5073278;28;20163;-66
2022/04/06 12:57:19;;;;;;;6.53;3.73;;;15.60;99.90;;;;;;5093019;28;20648;-66
2022/04/06 12:59:56;;;;;;;6.77;3.47;;;15.60;99.90;;;;;;5093700;28;20237;-66
2022/04/06 13:02:22;;;;;;;4.47;3.53;;;15.70;99.90;;;;;;5093684;28;20180;-66